Aeroporto :







RITROVATECI SU...

 
LOGIN :

Iscrizione | Disclaimer

   EN    FR    IT 

 









Sommario :    VFR   VFR Marginale   IFR   IFR Intensivo   IFR Molto Intensivo
Visibilità : 
Base nubi : 
>= 8 km
>= 3000ft
5 / 8 km
1000 / 3000 ft
1500m / 5 km
500 / 1000 ft
800 / 1500m
200 / 500 ft
< 800m
< 200 ft
Simboli :   Temporali  Nebbia  Neve Forte  Precipitazioni Forti  Vento > 20 kt






- Altitudine del aeroporto : 36 ft
- Codice IATA : PTP


TFFR - Le Raizet

ULTIMO METAR :
  • 291430Z AUTO 14013KT 9999 FEW041 SCT047 32/21 Q1017 TEMPO 13015G25KT

METARs OBSOLETI :
  • 291400Z AUTO 13011KT 090V170 9999 SCT041 BKN047 31/20 Q1017 TEMPO 13015G25KT
  • 291330Z AUTO 12013KT 9999 FEW042 31/20 Q1017 TEMPO 13015G25KT
  • 291300Z AUTO 12010KT 090V160 9999 SCT034 BKN040 31/20 Q1017 NOSIG
  • 291230Z AUTO 11009KT 070V140 9999 SCT035 SCT046 30/21 Q1016 NOSIG
  • 291200Z AUTO 10010KT 9999 BKN030 29/21 Q1016 NOSIG

TAF TAF TFFR
Valido dal 29 a 12 ore il 30 a 12 ore UTC


291100Z 2912/3012 13010KT 9999 SCT025
PROB40
TEMPO 2915/2921 13015G25KT
PROB30
TEMPO 2920/3003 4000 SHRA SCT020TCU
PROB40
TEMPO 3002/3006 VRB02KT
FIR TTZP / America del Nord



MetMap, La meteo Aeronautica in un colpo d'occhio ! - Copyright ORBIFLY Dicembre 2007 - Disclaimer

ORBIFLY MET'MAP TEAM :

Programmazione e sviluppo : Alexandra Zaïnal
Concezione : Baudouin d'Aumeries
Aiuto per la programmazione : Marc-Olivier Méhu
Supporto tecnico e logistico : Manuel Goepfert
Aiuto per la traduzione : Arnaldo La Scala

Contatto : metmap@orbifly.com




FONTI E CREDITI :

   NOAA